createdAt,value
2023-01-08T15:58:17.982Z,97659.77
2023-01-08T16:00:47.053Z,97674.25
2023-01-08T16:03:14.625Z,97674.18
2023-01-08T16:05:44.270Z,97673.95
2023-01-08T16:08:13.130Z,97680.14
2023-01-08T16:10:40.249Z,97680.31
2023-01-08T16:13:07.147Z,97677.32
2023-01-08T16:15:34.457Z,97675.63
2023-01-08T16:18:01.566Z,97675.58
2023-01-08T16:20:30.732Z,97677.77
2023-01-08T16:22:57.971Z,97676.89
2023-01-08T16:25:27.126Z,97677.05
2023-01-08T16:27:56.517Z,97674.79
2023-01-08T16:30:26.067Z,97672.46
2023-01-08T16:32:55.323Z,97672.93
2023-01-08T16:35:25.083Z,97669.84
2023-01-08T16:37:52.685Z,97662.47
2023-01-08T16:40:19.843Z,97655.84
2023-01-08T16:42:50.659Z,97650.23
2023-01-08T16:45:17.616Z,97646.70
2023-01-08T16:47:45.909Z,97645.30
2023-01-08T16:50:16.434Z,97640.48
2023-01-08T16:52:43.758Z,97638.11
2023-01-08T16:55:12.635Z,97634.96
2023-01-08T16:57:39.583Z,97633.84
2023-01-08T17:00:09.151Z,97637.60
2023-01-08T17:02:37.193Z,97632.39
2023-01-08T17:05:07.482Z,97628.95
2023-01-08T17:07:38.740Z,97632.02
2023-01-08T17:10:06.425Z,97623.51
2023-01-08T17:12:36.973Z,97627.05
2023-01-08T17:15:04.855Z,97628.77
2023-01-08T17:17:34.598Z,97625.58
2023-01-08T17:20:01.689Z,97624.54
2023-01-08T17:22:30.997Z,97621.95
2023-01-08T17:24:58.412Z,97613.20
2023-01-08T17:27:28.579Z,97612.26
2023-01-08T17:29:58.549Z,97599.80
2023-01-08T17:32:32.436Z,97595.36
2023-01-08T17:34:59.687Z,97594.80
2023-01-08T17:37:30.233Z,97588.72
2023-01-08T17:40:00.721Z,97586.73
2023-01-08T17:42:29.614Z,97587.39
2023-01-08T17:45:05.753Z,97581.28
2023-01-08T17:47:33.763Z,97579.77
2023-01-08T17:50:07.809Z,97567.28
2023-01-08T17:52:37.436Z,97566.76
2023-01-08T17:55:07.611Z,97558.55
2023-01-08T17:57:34.653Z,97552.61
2023-01-08T18:00:02.415Z,97551.09
2023-01-08T18:02:32.623Z,97542.02
2023-01-08T18:04:59.913Z,97535.25
2023-01-08T18:07:28.556Z,97525.94
2023-01-08T18:09:59.555Z,97523.11
2023-01-08T18:12:28.836Z,97520.15
2023-01-08T18:14:55.838Z,97525.94
2023-01-08T18:17:22.747Z,97527.09
2023-01-08T18:19:49.662Z,97522.86
2023-01-08T18:22:20.675Z,97517.41
2023-01-08T18:24:50.015Z,97515.02
2023-01-08T18:27:17.674Z,97512.16
2023-01-08T18:29:45.127Z,97508.36
2023-01-08T18:32:14.538Z,97503.59
2023-01-08T18:34:41.551Z,97507.03
2023-01-08T18:37:08.660Z,97505.33
2023-01-08T18:39:36.297Z,97505.28
2023-01-08T18:42:25.616Z,97502.20
2023-01-08T18:44:56.172Z,97507.05
2023-01-08T18:47:24.949Z,97506.51
2023-01-08T18:50:00.908Z,97511.85
2023-01-08T18:52:31.307Z,97516.36
2023-01-08T18:55:01.044Z,97510.27
2023-01-08T18:57:30.904Z,97507.33
2023-01-08T18:59:59.671Z,97513.42
2023-01-08T19:02:28.121Z,97507.24
2023-01-08T19:04:56.627Z,97512.05
2023-01-08T19:07:26.348Z,97509.48
2023-01-08T19:10:02.533Z,97504.74
2023-01-08T19:12:33.223Z,97503.08
2023-01-08T19:15:03.045Z,97498.99
2023-01-08T19:17:33.622Z,97498.51
2023-01-08T19:20:03.040Z,97495.13
2023-01-08T19:22:33.967Z,97493.42
2023-01-08T19:25:04.445Z,97500.27
2023-01-08T19:27:35.132Z,97499.67
2023-01-08T19:30:06.456Z,97502.08
2023-01-08T19:32:33.605Z,97502.60
2023-01-08T19:35:03.585Z,97500.07
2023-01-08T19:37:37.365Z,97504.27
2023-01-08T19:40:07.639Z,97503.35
2023-01-08T19:43:18.164Z,97510.44
2023-01-08T19:45:47.101Z,97514.51
2023-01-08T19:48:18.095Z,97510.16
2023-01-08T19:50:49.027Z,97505.11
2023-01-08T19:53:18.332Z,97507.15
2023-01-08T19:55:47.028Z,97503.17
2023-01-08T19:58:19.289Z,97504.52
2023-01-08T20:00:48.320Z,97504.58
2023-01-08T20:03:29.956Z,97503.64
2023-01-08T20:05:59.489Z,97499.87
2023-01-08T20:08:28.588Z,97497.88
2023-01-08T20:11:09.005Z,97499.16
2023-01-08T20:13:39.690Z,97488.58
2023-01-08T20:16:12.806Z,97483.52
2023-01-08T20:18:41.996Z,97483.32
2023-01-08T20:21:14.337Z,97486.36
2023-01-08T20:23:44.526Z,97480.85
2023-01-08T20:26:18.107Z,97483.51
2023-01-08T20:28:47.667Z,97485.13
2023-01-08T20:31:19.233Z,97480.60
2023-01-08T20:33:49.615Z,97480.67
2023-01-08T20:36:23.026Z,97478.69
2023-01-08T20:38:56.045Z,97482.48
2023-01-08T20:41:26.644Z,97478.70
2023-01-08T20:43:56.309Z,97469.45
2023-01-08T20:46:28.698Z,97475.61
2023-01-08T20:48:56.904Z,97466.39
2023-01-08T20:51:23.853Z,97465.90
2023-01-08T20:53:53.421Z,97463.65
2023-01-08T20:56:21.585Z,97460.22
2023-01-08T20:58:51.021Z,97460.88
2023-01-08T21:01:21.514Z,97464.36
2023-01-08T21:03:53.491Z,97466.23
2023-01-08T21:06:26.408Z,97464.05
2023-01-08T21:08:55.799Z,97465.71
2023-01-08T21:11:23.125Z,97451.13
2023-01-08T21:13:53.814Z,97453.22
2023-01-08T21:16:26.993Z,97459.06
2023-01-08T21:18:54.465Z,97452.67
2023-01-08T21:21:28.768Z,97448.30
2023-01-08T21:23:56.428Z,97439.86
2023-01-08T21:26:25.941Z,97428.37
2023-01-08T21:28:53.070Z,97427.32
2023-01-08T21:31:20.790Z,97426.02
2023-01-08T21:33:48.724Z,97427.85
2023-01-08T21:36:17.502Z,97427.84
2023-01-08T21:38:44.543Z,97428.15
2023-01-08T21:41:33.317Z,97422.22
2023-01-08T21:44:20.347Z,97421.23
2023-01-08T21:46:47.228Z,97408.14
2023-01-08T21:49:14.067Z,97402.98
2023-01-08T21:51:59.524Z,97406.92
2023-01-08T21:54:26.359Z,97403.80
2023-01-08T21:56:53.079Z,97404.83
2023-01-08T21:59:20.714Z,97401.67
2023-01-08T22:01:47.598Z,97400.16
2023-01-08T22:04:16.002Z,97406.92
2023-01-08T22:06:42.932Z,97404.21
2023-01-08T22:09:11.684Z,97408.36
2023-01-08T22:11:38.378Z,97405.70
2023-01-08T22:14:05.259Z,97406.30
2023-01-08T22:16:32.056Z,97401.08
2023-01-08T22:18:58.875Z,97409.44
2023-01-08T22:21:25.684Z,97405.10
2023-01-08T22:23:52.608Z,97408.14
2023-01-08T22:26:20.261Z,97416.08
2023-01-08T22:28:47.224Z,97419.33
2023-01-08T22:31:14.586Z,97411.15
2023-01-08T22:33:41.409Z,97419.24
2023-01-08T22:36:10.237Z,97420.77
2023-01-08T22:38:37.513Z,97417.31
2023-01-08T22:41:04.587Z,97412.39
2023-01-08T22:43:31.391Z,97414.95
2023-01-08T22:45:59.261Z,97411.15
2023-01-08T22:48:26.463Z,97418.62
2023-01-08T22:50:53.220Z,97399.17
2023-01-08T22:53:20.138Z,97407.61
2023-01-08T22:55:47.288Z,97398.65
2023-01-08T22:58:17.508Z,97403.42
2023-01-08T23:00:44.381Z,97408.67
2023-01-08T23:03:11.301Z,97408.56
2023-01-08T23:05:37.997Z,97405.50
2023-01-08T23:08:05.061Z,97408.64
2023-01-08T23:10:31.930Z,97412.20
2023-01-08T23:12:58.617Z,97406.23
2023-01-08T23:15:25.426Z,97411.14
2023-01-08T23:17:52.900Z,97417.40
2023-01-08T23:20:20.680Z,97407.96
2023-01-08T23:22:47.602Z,97411.21
2023-01-08T23:25:14.776Z,97401.20
2023-01-08T23:27:41.451Z,97397.72
2023-01-08T23:30:08.801Z,97392.86
2023-01-08T23:32:35.549Z,97388.34
2023-01-08T23:35:02.326Z,97379.31
2023-01-08T23:37:29.085Z,97375.52
2023-01-08T23:39:55.804Z,97370.35
2023-01-08T23:42:22.579Z,97356.34
2023-01-08T23:44:49.740Z,97359.27
2023-01-08T23:47:16.531Z,97351.12
2023-01-08T23:49:43.271Z,97345.08
2023-01-08T23:52:10.086Z,97340.85
2023-01-08T23:54:36.889Z,97336.34
2023-01-08T23:57:06.138Z,97322.27
2023-01-08T23:59:33.062Z,97328.23
